createdAt,value
2022-10-09T00:03:01.558Z,22.63
2022-10-09T00:08:04.240Z,22.51
2022-10-09T00:13:08.275Z,22.44
2022-10-09T00:18:11.934Z,22.29
2022-10-09T00:23:17.249Z,22.15
2022-10-09T00:28:21.371Z,22.04
2022-10-09T00:33:25.334Z,21.92
2022-10-09T00:38:27.968Z,21.83
2022-10-09T00:43:46.402Z,21.76
2022-10-09T00:48:49.679Z,21.87
2022-10-09T00:53:52.404Z,22.03
2022-10-09T00:58:56.951Z,22.09
2022-10-09T01:03:59.792Z,22.06
2022-10-09T01:09:03.564Z,21.97
2022-10-09T01:14:11.254Z,21.90
2022-10-09T01:19:24.849Z,21.91
2022-10-09T01:24:29.771Z,21.76
2022-10-09T01:29:35.912Z,21.73
2022-10-09T01:34:38.559Z,21.69
2022-10-09T01:39:41.274Z,21.62
2022-10-09T01:44:45.409Z,21.60
2022-10-09T01:49:52.961Z,21.51
2022-10-09T01:55:03.225Z,21.49
2022-10-09T02:00:09.218Z,21.46
2022-10-09T02:05:21.423Z,21.41
2022-10-09T02:10:24.107Z,21.37
2022-10-09T02:15:29.231Z,21.34
2022-10-09T02:20:33.501Z,21.29
2022-10-09T02:25:36.300Z,21.25
2022-10-09T02:30:45.192Z,21.26
2022-10-09T02:35:48.541Z,21.19
2022-10-09T02:40:51.223Z,21.17
2022-10-09T02:45:55.221Z,21.13
2022-10-09T02:50:57.847Z,21.10
2022-10-09T02:56:00.607Z,21.06
2022-10-09T03:01:04.809Z,20.99
2022-10-09T03:06:09.446Z,20.98
2022-10-09T03:11:12.495Z,20.94
2022-10-09T03:16:17.213Z,20.87
2022-10-09T03:21:20.770Z,20.83
2022-10-09T03:26:24.421Z,20.85
2022-10-09T03:36:51.435Z,20.79
2022-10-09T03:41:54.273Z,20.76
2022-10-09T03:46:58.386Z,20.74
2022-10-09T03:52:01.111Z,20.70
2022-10-09T03:57:03.772Z,20.71
2022-10-09T04:02:08.095Z,20.64
2022-10-09T04:07:10.798Z,20.65
2022-10-09T04:12:13.445Z,20.62
2022-10-09T04:17:17.452Z,20.64
2022-10-09T04:22:20.233Z,20.62
2022-10-09T04:27:22.965Z,20.59
2022-10-09T04:32:26.984Z,20.61
2022-10-09T04:37:29.731Z,20.58
2022-10-09T04:42:32.428Z,20.55
2022-10-09T04:47:36.617Z,20.56
2022-10-09T04:52:39.345Z,20.56
2022-10-09T04:57:42.028Z,20.54
2022-10-09T05:02:46.248Z,20.52
2022-10-09T05:07:49.230Z,20.50
2022-10-09T05:12:51.944Z,20.48
2022-10-09T05:17:55.986Z,20.48
2022-10-09T05:22:58.925Z,20.45
2022-10-09T05:28:02.367Z,20.46
2022-10-09T05:33:06.495Z,20.40
2022-10-09T05:38:09.171Z,20.42
2022-10-09T05:43:11.888Z,20.41
2022-10-09T05:48:16.264Z,20.43
2022-10-09T05:53:18.954Z,20.34
2022-10-09T05:58:21.868Z,20.32
2022-10-09T06:03:25.917Z,20.31
2022-10-09T06:08:28.796Z,20.30
2022-10-09T06:13:31.587Z,20.31
2022-10-09T06:18:35.896Z,20.30
2022-10-09T06:23:38.824Z,20.32
2022-10-09T06:28:41.728Z,20.26
2022-10-09T06:33:46.302Z,20.32
2022-10-09T06:38:49.079Z,20.33
2022-10-09T06:43:53.990Z,20.32
2022-10-09T06:48:59.452Z,20.34
2022-10-09T06:54:04.527Z,20.36
2022-10-09T06:59:07.673Z,20.34
2022-10-09T07:04:12.877Z,20.31
2022-10-09T07:09:16.044Z,20.30
2022-10-09T07:14:18.691Z,20.28
2022-10-09T07:19:22.714Z,20.32
2022-10-09T07:24:25.643Z,20.32
2022-10-09T07:29:28.293Z,20.34
2022-10-09T07:34:32.353Z,20.39
2022-10-09T07:39:36.325Z,20.43
2022-10-09T07:44:39.014Z,20.38
2022-10-09T07:49:43.117Z,19.11
2022-10-09T07:54:45.914Z,18.52
2022-10-09T07:59:48.610Z,18.61
2022-10-09T08:04:52.589Z,19.16
2022-10-09T08:09:55.320Z,19.41
2022-10-09T08:14:58.012Z,19.51
2022-10-09T08:20:02.078Z,19.60
2022-10-09T08:25:05.552Z,19.68
2022-10-09T08:30:09.664Z,19.75
2022-10-09T08:35:14.195Z,19.81
2022-10-09T08:40:17.119Z,19.87
2022-10-09T08:45:20.075Z,19.92
2022-10-09T08:50:25.940Z,19.96
2022-10-09T08:55:29.731Z,19.98
2022-10-09T09:00:36.178Z,20.03
2022-10-09T09:05:44.759Z,20.05
2022-10-09T09:10:50.890Z,20.07
2022-10-09T09:15:55.322Z,20.11
2022-10-09T09:21:00.516Z,20.14
2022-10-09T09:26:03.280Z,20.17
2022-10-09T09:31:09.156Z,20.19
2022-10-09T09:36:15.178Z,20.20
2022-10-09T09:41:18.122Z,20.24
2022-10-09T09:46:22.298Z,20.25
2022-10-09T09:51:29.601Z,20.30
2022-10-09T09:56:59.900Z,20.32
2022-10-09T10:02:01.961Z,20.34
2022-10-09T10:07:06.685Z,20.09
2022-10-09T10:12:13.577Z,20.30
2022-10-09T10:17:19.061Z,20.39
2022-10-09T10:22:25.211Z,20.46
2022-10-09T10:27:30.142Z,20.50
2022-10-09T10:32:34.407Z,20.52
2022-10-09T10:37:41.427Z,20.58
2022-10-09T10:42:47.311Z,20.64
2022-10-09T10:47:51.089Z,20.70
2022-10-09T10:53:02.985Z,20.74
2022-10-09T10:58:13.576Z,20.77
2022-10-09T11:03:23.641Z,20.81
2022-10-09T11:08:42.642Z,20.88
2022-10-09T11:13:50.024Z,20.94
2022-10-09T11:19:00.847Z,20.96
2022-10-09T11:24:37.168Z,20.99
2022-10-09T11:29:42.348Z,21.14
2022-10-09T11:34:48.125Z,21.30
2022-10-09T11:39:52.254Z,21.36
2022-10-09T11:45:01.842Z,21.39
2022-10-09T11:50:14.450Z,21.46
2022-10-09T11:55:20.435Z,21.54
2022-10-09T12:00:31.071Z,21.56
2022-10-09T12:05:40.857Z,21.61
2022-10-09T12:10:47.609Z,21.66
2022-10-09T12:15:54.721Z,21.70
2022-10-09T12:20:57.893Z,21.74
2022-10-09T12:26:02.019Z,21.79
2022-10-09T12:31:06.421Z,21.85
2022-10-09T12:36:13.273Z,21.88
2022-10-09T12:41:21.724Z,21.91
2022-10-09T12:46:29.242Z,21.96
2022-10-09T12:51:32.939Z,21.99
2022-10-09T12:56:38.452Z,22.07
2022-10-09T13:01:41.391Z,22.13
2022-10-09T13:06:44.958Z,22.27
2022-10-09T13:11:52.828Z,22.36
2022-10-09T13:16:55.654Z,22.51
2022-10-09T13:22:18.296Z,22.64
2022-10-09T13:27:22.552Z,22.99
2022-10-09T13:32:25.353Z,23.03
2022-10-09T13:37:28.157Z,23.12
2022-10-09T13:42:33.976Z,23.23
2022-10-09T13:47:36.812Z,23.27
2022-10-09T13:57:48.929Z,23.31
2022-10-09T14:02:52.072Z,23.15
2022-10-09T14:07:55.379Z,22.93
2022-10-09T14:12:59.621Z,22.80
2022-10-09T14:18:02.274Z,22.71
2022-10-09T14:23:05.032Z,22.62
2022-10-09T14:28:09.060Z,22.54
2022-10-09T14:33:12.538Z,22.50
2022-10-09T14:38:15.503Z,22.50
2022-10-09T14:43:20.043Z,22.48
2022-10-09T14:48:22.743Z,22.43
2022-10-09T14:53:27.012Z,22.58
2022-10-09T14:58:32.098Z,22.80
2022-10-09T15:03:35.680Z,23.11
2022-10-09T15:08:39.904Z,23.25
2022-10-09T15:13:45.057Z,23.32
2022-10-09T15:18:49.012Z,23.33
2022-10-09T15:23:51.737Z,23.02
2022-10-09T15:28:55.773Z,22.82
2022-10-09T15:33:58.664Z,22.70
2022-10-09T15:39:03.156Z,22.57
2022-10-09T15:44:08.923Z,22.57
2022-10-09T15:49:11.683Z,22.58
2022-10-09T15:54:15.012Z,22.53
2022-10-09T15:59:19.143Z,22.50
2022-10-09T16:04:21.926Z,22.44
2022-10-09T16:09:25.093Z,22.41
2022-10-09T16:14:30.359Z,22.38
2022-10-09T16:19:33.086Z,22.37
2022-10-09T16:24:35.872Z,22.34
2022-10-09T16:29:39.994Z,22.34
2022-10-09T16:34:42.707Z,22.30
2022-10-09T16:39:45.793Z,22.30
2022-10-09T16:44:51.485Z,22.26
2022-10-09T16:49:54.173Z,22.24
2022-10-09T16:55:00.168Z,22.26
2022-10-09T17:00:05.605Z,22.29
2022-10-09T17:05:09.127Z,22.26
2022-10-09T17:10:11.801Z,22.30
2022-10-09T17:15:15.938Z,22.29
2022-10-09T17:20:18.747Z,22.32
2022-10-09T17:25:21.507Z,22.32
2022-10-09T17:30:26.644Z,22.30
2022-10-09T17:35:29.272Z,22.32
2022-10-09T17:40:31.977Z,22.31
2022-10-09T17:45:39.570Z,22.30
2022-10-09T17:50:42.229Z,22.29
2022-10-09T17:55:44.939Z,22.32
2022-10-09T18:00:49.106Z,22.33
2022-10-09T18:05:52.189Z,22.33
2022-10-09T18:10:58.452Z,22.35
2022-10-09T18:16:05.714Z,22.38
2022-10-09T18:21:10.294Z,22.34
2022-10-09T18:26:14.669Z,22.36
2022-10-09T18:31:20.748Z,22.37
2022-10-09T18:36:24.792Z,22.37
2022-10-09T18:41:27.486Z,22.34
2022-10-09T18:46:32.802Z,22.31
2022-10-09T18:51:35.598Z,22.31
2022-10-09T18:56:38.343Z,22.28
2022-10-09T19:01:42.354Z,22.27
2022-10-09T19:06:45.350Z,22.27
2022-10-09T19:11:48.024Z,22.24
2022-10-09T19:16:52.065Z,22.21
2022-10-09T19:21:55.003Z,22.19
2022-10-09T19:26:58.346Z,22.23
2022-10-09T19:32:02.388Z,22.21
2022-10-09T19:42:13.129Z,22.23
2022-10-09T19:47:18.872Z,22.28
2022-10-09T19:52:23.016Z,22.30
2022-10-09T19:57:26.543Z,22.33
2022-10-09T20:02:30.836Z,22.37
2022-10-09T20:07:33.606Z,22.35
2022-10-09T20:12:36.288Z,22.37
2022-10-09T20:17:40.289Z,22.37
2022-10-09T20:22:43.367Z,22.40
2022-10-09T20:27:46.057Z,22.34
2022-10-09T20:32:51.470Z,22.41
2022-10-09T20:37:57.044Z,22.44
2022-10-09T20:42:59.725Z,22.43
2022-10-09T20:48:03.742Z,22.45
2022-10-09T20:53:06.639Z,22.44
2022-10-09T20:58:09.293Z,22.46
2022-10-09T21:03:13.325Z,22.47
2022-10-09T21:08:15.994Z,22.46
2022-10-09T21:13:18.701Z,22.47
2022-10-09T21:18:23.294Z,22.50
2022-10-09T21:23:26.206Z,22.50
2022-10-09T21:28:29.101Z,22.47
2022-10-09T21:33:33.260Z,22.50
2022-10-09T21:38:35.923Z,22.49
2022-10-09T21:43:38.588Z,22.49
2022-10-09T21:48:42.683Z,22.51
2022-10-09T21:53:45.488Z,22.50
2022-10-09T21:58:49.168Z,22.51
2022-10-09T22:03:53.781Z,22.49
2022-10-09T22:08:56.457Z,22.48
2022-10-09T22:13:59.148Z,22.42
2022-10-09T22:19:03.196Z,22.34
2022-10-09T22:24:06.142Z,22.24
2022-10-09T22:29:08.790Z,22.13
2022-10-09T22:34:12.804Z,22.01
2022-10-09T22:39:15.507Z,21.91
2022-10-09T22:44:18.207Z,21.76
2022-10-09T22:49:22.204Z,21.64
2022-10-09T22:54:25.070Z,21.61
2022-10-09T22:59:27.942Z,21.56
2022-10-09T23:04:32.263Z,21.58
2022-10-09T23:09:34.939Z,21.61
2022-10-09T23:14:37.605Z,21.63
2022-10-09T23:19:41.741Z,21.74
2022-10-09T23:24:44.662Z,21.80
2022-10-09T23:29:47.350Z,21.81
2022-10-09T23:34:51.411Z,21.81
2022-10-09T23:39:54.109Z,21.77
2022-10-09T23:44:57.009Z,21.71
2022-10-09T23:50:01.258Z,21.68
2022-10-09T23:55:04.040Z,21.63
